• Join FlightAware (Why Join?)
  • Login
  • US Flag 
11:29AM EDT


 

Airport Tracker/Info


-or-


 

Live Flight TrackerFlight Track Log ✈ RPA3196 ✈ 04-May-2013 ✈ KPHL - KBTV

Flight Track Log - Related Links

Times and Time Zones

All times are in EDT time to prevent confusion due to time zone crossing. See the RPA3196 flight status page for this flight to view local times or setup timezone preferences in your user account.

Time Position Orientation Groundspeed Altitude Reporting Facility
EDT Latitude Longitude Course Direction KTS MPH feet Rate Location/Type
09:50AM 39.8833 -75.2167 37° Northeast 150 173 800  Level Philadelphia TRACON
09:51AM 39.8667 -75.1667 113° Southeast 201 231 2,400 2,640 Climbing Philadelphia TRACON
09:52AM 39.8045 -74.8057 105° East  Level FlightAware Approximate
09:52AM 39.8500 -75.1000 108° East 204 235 5,600  Level Philadelphia TRACON
09:53AM 39.8073 -74.6761 37° Northeast  Level FlightAware Approximate
09:54AM 39.8979 -74.5855 37° Northeast  Level FlightAware Approximate
09:54AM 39.8414 -74.9561 94° East 256 295 10,100  Level New York Center
09:55AM 39.9919 -74.5081 37° Northeast  Level FlightAware Approximate
09:55AM 39.8181 -74.8439 105° East 280 322 12,300  Level New York Center
09:56AM 39.8028 -74.7403 101° East 298 343 14,800 2,460 Climbing New York Center
09:57AM 39.8600 -74.6542 49° Northeast 279 321 17,300 2,340 Climbing New York Center
09:58AM 39.9331 -74.5878 35° Northeast 279 321 19,500 2,040 Climbing New York Center
09:59AM 40.0083 -74.5108 38° Northeast 304 350 21,500 1,980 Climbing New York Center
10:00AM 40.0817 -74.4333 39° Northeast 320 368 23,500 1,320 Climbing New York Center
10:01AM 40.1631 -74.3617 34° Northeast 333 383 24,200 1,140 Climbing New York Center
10:02AM 40.2525 -74.3036 26° Northeast 345 397 25,800 1,380 Climbing New York Center
10:03AM 40.3439 -74.2431 27° Northeast 356 410 27,100 1,200 Climbing New York Center
10:04AM 40.4375 -74.1794 27° Northeast 364 419 28,300 1,140 Climbing New York Center
10:05AM 40.5350 -74.1161 26° Northeast 371 427 29,400 1,020 Climbing New York Center
10:06AM 40.6389 -74.0528 25° Northeast 383 441 30,400 480 Climbing New York Center
10:08AM 40.8500 -73.9631 18° North 385 443 31,000 180 Climbing Boston Center
10:09AM 40.9547 -73.9325 12° North 379 436 31,000  Level Boston Center
10:10AM 41.0572 -73.9044 12° North 373 429 31,000  Level Boston Center
10:11AM 41.1597 -73.8736 13° North 373 429 31,000  Level Boston Center
10:12AM 41.2642 -73.8456 11° North 373 429 31,000  Level Boston Center
10:13AM 41.3667 -73.8147 13° North 373 429 31,000  Level Boston Center
10:14AM 41.4711 -73.7867 11° North 373 429 31,000  Level Boston Center
10:15AM 41.5717 -73.7553 13° North 373 429 31,000  Level Boston Center
10:16AM 41.6742 -73.7269 12° North 373 429 31,000  Level Boston Center
10:17AM 41.7847 -73.6986 11° North 373 429 31,000  Level Boston Center
10:18AM 41.8872 -73.6700 12° North 368 423 31,000  Level Boston Center
10:19AM 41.9875 -73.6411 12° North 368 423 31,000  Level Boston Center
10:20AM 42.0922 -73.6011 16° North 368 423 31,000  Level Boston Center
10:21AM 42.1925 -73.5778 10° North 380 437 31,000  Level Boston Center
10:22AM 42.2950 -73.5431 14° North 375 432 31,000  Level Boston Center
10:23AM 42.3953 -73.5253 North 368 423 31,000  Level Boston Center
10:24AM 42.4956 -73.4933 13° North 368 423 31,000  Level Boston Center
10:25AM 42.5981 -73.4667 11° North 368 423 31,000  Level Boston Center
10:26AM 42.6961 -73.4344 14° North 368 423 31,000  Level Boston Center
10:27AM 42.7986 -73.4050 12° North 368 423 31,000 -300 Level Boston Center
10:28AM 42.8967 -73.3753 13° North 368 423 30,500 -1,320 Descending Boston Center
10:29AM 43.0053 -73.3486 10° North 377 434 28,400 -1,860 Descending Boston Center
10:30AM 43.0950 -73.3328 North 377 434 26,800 -1,800 Descending Boston Center
10:31AM 43.1953 -73.3200 North 363 418 24,900 -1,440 Descending Boston Center
10:32AM 43.2911 -73.3100 North 357 411 24,000 -540 Descending Boston Center
10:33AM 43.3872 -73.2972 North 350 403 23,900 -1,200 Descending Boston Center
10:34AM 43.4853 -73.2814 North 337 388 21,600 -2,160 Descending Boston Center
10:35AM 43.5792 -73.2683 North 332 382 19,600 -1,800 Descending Boston Center
10:36AM 43.6708 -73.2581 North 332 382 18,000 -1,800 Descending Boston Center
10:37AM 43.7625 -73.2478 North 332 382 16,100 -1,800 Descending Boston Center
10:38AM 43.8544 -73.2375 North 327 376 14,400 -1,800 Descending Boston Center
10:39AM 43.9417 -73.2619 349° North 327 376 12,600 -1,800 Descending Boston Center
10:40AM 44.0311 -73.2919 346° North 322 371 10,900 -1,380 Descending Boston Center
10:41AM 44.1100 -73.3161 348° North 310 357 9,900 -1,080 Descending Boston Center
10:42AM 44.1889 -73.3433 346° North 292 336 8,800 -1,080 Descending Boston Center
10:43AM 44.2658 -73.3736 344° North 287 330 7,800 -960 Descending Boston Center
10:44AM 44.3386 -73.3981 346° North 280 322 6,900 -960 Descending Boston Center
10:45AM 44.4114 -73.4222 347° North 269 310 5,900 -960 Descending Boston Center
10:46AM 44.4819 -73.4467 346° North 264 304 5,000 -780 Descending Boston Center
10:47AM 44.5464 -73.4478 359° North 248 285 4,400 -300 Descending Boston Center
10:48AM 44.5844 -73.4019 41° Northeast 181 208 4,400 -420 Level Boston Center
10:49AM 44.5889 -73.3467 84° East 148 170 3,600 -840 Descending Boston Center
10:50AM 44.5603 -73.2967 129° Southeast 123 142 2,800 -840 Descending Boston Center
10:51AM 44.5333 -73.2556 133° Southeast 139 160 2,000 -840 Descending Boston Center